Time;durP1;ratioP1;P1;durP2;ratioP2;P2;SDS_P1;SDS_P2;PMS_P1;PMS_P2;Temp;Humidity;BMP_temperature;BMP_pressure;BME280_temperature;BME280_humidity;BME280_pressure;Samples;Min_cycle;Max_cycle;Signal;HPM_P1;HPM_P2
2023/12/04 00:00:20;;;;;;;19.65;15.70;;;;;;;-3.59;77.05;98187.44;5051820;28;20201;-75
2023/12/04 00:02:48;;;;;;;17.10;14.20;;;;;;;-3.96;78.36;98177.81;5050177;28;20853;-75
2023/12/04 00:05:14;;;;;;;19.95;15.55;;;;;;;-3.93;79.19;98172.31;5051601;28;20637;-76
2023/12/04 00:07:41;;;;;;;15.88;13.82;;;;;;;-3.46;78.21;98159.13;5049813;28;20227;-76
2023/12/04 00:10:08;;;;;;;18.33;15.77;;;;;;;-3.58;77.63;98162.69;5051241;28;20213;-75
2023/12/04 00:12:34;;;;;;;18.00;14.15;;;;;;;-2.22;72.42;98150.59;5048841;28;20266;-76
2023/12/04 00:15:01;;;;;;;16.05;13.30;;;;;;;-2.72;73.55;98157.16;5050806;28;20219;-76
2023/12/04 00:17:27;;;;;;;19.17;13.73;;;;;;;-3.35;75.70;98152.22;5047803;28;20264;-76
2023/12/04 00:19:55;;;;;;;18.33;14.27;;;;;;;-3.49;76.10;98143.47;5050239;28;20209;-75
2023/12/04 00:22:23;;;;;;;16.75;13.38;;;;;;;-3.43;76.14;98144.84;5052977;28;20228;-75
2023/12/04 00:24:50;;;;;;;19.50;14.65;;;;;;;-3.69;76.36;98145.91;5049780;28;20206;-75
2023/12/04 00:27:16;;;;;;;19.88;15.73;;;;;;;-3.89;77.57;98134.09;5050078;28;20229;-76
2023/12/04 00:29:43;;;;;;;21.13;14.88;;;;;;;-4.00;78.00;98140.19;5049075;28;20199;-76
2023/12/04 00:32:09;;;;;;;20.88;15.77;;;;;;;-3.86;78.15;98134.72;5051942;28;20209;-75
2023/12/04 00:34:35;;;;;;;19.85;16.05;;;;;;;-3.90;78.65;98143.88;5049117;28;20190;-76
2023/12/04 00:37:04;;;;;;;21.40;16.55;;;;;;;-3.96;78.10;98140.81;5049642;28;20309;-76
2023/12/04 00:39:30;;;;;;;21.02;16.52;;;;;;;-4.04;78.65;98140.50;5049604;28;20844;-75
2023/12/04 00:41:57;;;;;;;20.42;16.85;;;;;;;-3.36;77.05;98121.44;5051085;28;20201;-76
2023/12/04 00:44:23;;;;;;;21.33;17.45;;;;;;;-2.87;75.07;98121.22;5049985;28;20204;-76
2023/12/04 00:46:49;;;;;;;21.17;17.15;;;;;;;-3.47;76.51;98120.41;5049929;28;20228;-75
2023/12/04 00:49:16;;;;;;;21.83;16.17;;;;;;;-3.73;77.08;98108.25;5052306;28;20214;-76
2023/12/04 00:51:43;;;;;;;21.55;17.58;;;;;;;-4.00;78.66;98105.81;5050906;28;20681;-75
2023/12/04 00:54:11;;;;;;;21.02;16.30;;;;;;;-3.69;78.06;98104.44;5083602;28;20234;-75
2023/12/04 00:56:39;;;;;;;19.73;15.75;;;;;;;-3.53;76.90;98102.34;5049189;28;20313;-76
2023/12/04 00:59:06;;;;;;;21.80;16.63;;;;;;;-3.77;77.42;98096.22;5049672;28;20190;-75
2023/12/04 01:01:33;;;;;;;20.73;17.65;;;;;;;-4.21;78.62;98092.31;5049868;28;20198;-75
2023/12/04 01:04:00;;;;;;;24.20;19.10;;;;;;;-4.40;79.33;98098.09;5049663;28;20205;-75
2023/12/04 01:06:26;;;;;;;22.27;16.50;;;;;;;-4.19;79.69;98085.13;5049609;28;20218;-76
2023/12/04 01:08:54;;;;;;;21.33;17.77;;;;;;;-4.40;80.16;98098.09;5050250;28;20207;-76
2023/12/04 01:11:23;;;;;;;25.45;19.80;;;;;;;-4.46;80.85;98095.88;5050478;28;20210;-75
2023/12/04 01:13:49;;;;;;;24.05;18.83;;;;;;;-4.22;80.37;98095.91;5050107;28;20258;-75
2023/12/04 01:16:16;;;;;;;23.45;17.30;;;;;;;-4.23;80.23;98096.06;5045353;28;20249;-75
2023/12/04 01:18:43;;;;;;;23.38;16.90;;;;;;;-4.31;80.08;98093.97;5049558;28;20201;-76
2023/12/04 01:21:09;;;;;;;25.50;19.50;;;;;;;-4.17;79.72;98096.44;5050013;28;20202;-76
2023/12/04 01:23:36;;;;;;;25.77;19.80;;;;;;;-4.53;80.85;98096.41;5049349;28;20609;-75
2023/12/04 01:26:02;;;;;;;24.98;18.90;;;;;;;-4.71;81.71;98092.41;5045839;28;20212;-75
2023/12/04 01:28:30;;;;;;;26.70;20.10;;;;;;;-4.10;81.18;98084.50;5050697;28;20539;-76
2023/12/04 01:30:56;;;;;;;24.98;18.15;;;;;;;-3.98;79.98;98087.22;5049922;28;20545;-76
2023/12/04 01:33:23;;;;;;;22.80;18.10;;;;;;;-4.13;79.73;98078.56;5050577;28;20236;-76
2023/12/04 01:35:49;;;;;;;23.17;18.98;;;;;;;-4.09;79.71;98067.69;5049510;28;20209;-75
2023/12/04 01:38:16;;;;;;;22.63;17.42;;;;;;;-3.47;78.28;98072.81;5049807;28;20778;-75
2023/12/04 01:40:42;;;;;;;21.65;17.17;;;;;;;-3.41;77.22;98067.06;5048733;28;20560;-76
2023/12/04 01:43:09;;;;;;;21.50;16.98;;;;;;;-2.89;75.76;98071.03;5048558;28;20201;-76
2023/12/04 01:45:36;;;;;;;21.88;17.40;;;;;;;-2.89;75.17;98073.69;5047952;28;20202;-76
2023/12/04 01:48:05;;;;;;;21.00;17.02;;;;;;;-3.19;76.00;98057.50;5050384;28;20234;-76
2023/12/04 01:50:32;;;;;;;18.38;15.75;;;;;;;-3.42;76.56;98062.72;5050749;28;20210;-76
2023/12/04 01:52:59;;;;;;;19.83;15.52;;;;;;;-3.31;77.17;98055.81;5048772;28;20225;-76
2023/12/04 01:55:25;;;;;;;21.63;17.25;;;;;;;-3.24;76.46;98063.13;5047234;28;20195;-76
2023/12/04 01:57:51;;;;;;;18.35;16.35;;;;;;;-3.39;76.86;98059.84;5049513;28;20231;-76
2023/12/04 02:00:20;;;;;;;18.65;14.45;;;;;;;-3.05;75.31;98057.31;5050309;28;20242;-76
2023/12/04 02:02:48;;;;;;;22.05;16.08;;;;;;;-2.82;74.28;98052.88;5049710;28;20253;-76
2023/12/04 02:05:15;;;;;;;20.70;14.70;;;;;;;-3.04;74.83;98048.41;5047502;28;20204;-76
2023/12/04 02:07:43;;;;;;;18.40;16.00;;;;;;;-2.90;74.43;98055.28;5039567;28;20219;-75
2023/12/04 02:10:10;;;;;;;19.85;15.15;;;;;;;-2.72;74.05;98052.06;5049521;28;20207;-76
2023/12/04 02:12:37;;;;;;;21.48;16.55;;;;;;;-2.74;73.32;98048.69;5046269;28;20203;-76
2023/12/04 02:15:04;;;;;;;21.67;16.35;;;;;;;-3.14;74.56;98052.72;5048764;28;20220;-76
2023/12/04 02:17:32;;;;;;;20.48;15.48;;;;;;;-3.49;75.75;98050.91;5051006;28;20229;-76
2023/12/04 02:20:00;;;;;;;18.15;15.50;;;;;;;-3.43;76.31;98046.97;5049553;28;20220;-76
2023/12/04 02:22:26;;;;;;;22.35;15.40;;;;;;;-3.16;75.67;98041.41;5049816;28;20195;-77
2023/12/04 02:24:58;;;;;;;20.08;15.43;;;;;;;-2.81;74.32;98026.28;5045754;28;20201;-76
2023/12/04 02:27:27;;;;;;;20.88;16.08;;;;;;;-2.93;74.30;98029.91;5049280;28;20328;-76
2023/12/04 02:29:57;;;;;;;24.02;16.08;;;;;;;-2.38;72.58;98009.69;5049279;28;20208;-76
2023/12/04 02:32:24;;;;;;;19.70;15.23;;;;;;;-1.48;68.93;98008.44;5049816;28;20207;-76
2023/12/04 02:34:51;;;;;;;20.83;15.55;;;;;;;-2.04;70.05;98013.94;5046837;28;20344;-76
2023/12/04 02:37:18;;;;;;;18.42;14.63;;;;;;;-2.37;71.03;98008.72;5049595;28;20217;-76
2023/12/04 02:39:44;;;;;;;18.08;14.48;;;;;;;-2.79;72.24;98010.28;5050443;28;20205;-76
2023/12/04 02:42:14;;;;;;;18.63;14.52;;;;;;;-3.41;74.55;98018.59;5041584;28;20644;-76
2023/12/04 02:44:40;;;;;;;21.35;15.60;;;;;;;-3.60;75.69;98019.16;5046984;28;20201;-76
2023/12/04 02:47:07;;;;;;;20.27;15.18;;;;;;;-3.59;75.41;98027.94;5049246;28;20234;-76
2023/12/04 02:49:33;;;;;;;19.88;15.85;;;;;;;-3.66;76.00;98030.19;5048008;28;20204;-77
2023/12/04 02:52:00;;;;;;;19.98;15.20;;;;;;;-3.59;75.77;98030.59;5048113;28;20209;-76
2023/12/04 02:54:26;;;;;;;23.38;16.50;;;;;;;-3.52;75.26;98013.28;5048443;28;20314;-76
2023/12/04 02:56:53;;;;;;;17.02;14.20;;;;;;;-3.08;75.22;98016.03;5046239;28;20646;-76
2023/12/04 02:59:20;;;;;;;18.15;14.32;;;;;;;-3.12;74.57;98003.16;5048906;28;20197;-76
2023/12/04 03:01:47;;;;;;;21.10;15.57;;;;;;;-3.09;74.28;97998.47;5077848;28;20193;-77
2023/12/04 03:04:14;;;;;;;19.00;14.73;;;;;;;-3.13;74.08;97986.44;5047778;28;20608;-77
2023/12/04 03:06:40;;;;;;;18.33;14.38;;;;;;;-1.67;68.76;97973.81;5049859;28;20225;-77
2023/12/04 03:09:07;;;;;;;16.83;12.85;;;;;;;-2.37;70.29;97969.81;5048283;28;20220;-76
2023/12/04 03:11:33;;;;;;;17.80;13.45;;;;;;;-2.57;71.88;97967.03;5048425;28;20791;-77
2023/12/04 03:14:01;;;;;;;19.08;13.68;;;;;;;-2.90;72.35;97966.09;5046503;28;20218;-77
2023/12/04 03:16:28;;;;;;;19.17;13.82;;;;;;;-3.19;73.81;97954.31;5081227;28;20632;-76
2023/12/04 03:18:55;;;;;;;18.83;13.95;;;;;;;-3.43;74.21;97954.41;5048363;28;20215;-76
2023/12/04 03:21:21;;;;;;;19.20;14.48;;;;;;;-3.78;75.57;97949.97;5048728;28;20240;-76
2023/12/04 03:23:48;;;;;;;20.30;14.13;;;;;;;-4.07;77.03;97960.09;5047505;28;20266;-77
2023/12/04 03:26:14;;;;;;;18.90;13.80;;;;;;;-4.08;77.80;97961.03;5046027;28;20570;-76
2023/12/04 03:28:41;;;;;;;21.55;15.27;;;;;;;-4.08;77.53;97955.75;5048152;28;20656;-77
2023/12/04 03:31:08;;;;;;;18.42;14.35;;;;;;;-3.73;77.14;97949.63;5046657;28;20201;-77
2023/12/04 03:33:35;;;;;;;18.42;13.95;;;;;;;-3.25;75.34;97944.22;5047730;28;20225;-77
2023/12/04 03:36:02;;;;;;;23.52;16.65;;;;;;;-3.56;76.12;97949.19;5048628;28;20564;-77
2023/12/04 03:38:29;;;;;;;19.73;14.38;;;;;;;-3.15;75.65;97934.59;5042619;28;20218;-77
2023/12/04 03:40:55;;;;;;;20.13;14.60;;;;;;;-1.65;69.81;97926.78;5046155;28;20211;-77
2023/12/04 03:43:22;;;;;;;16.27;13.90;;;;;;;-1.15;67.34;97918.97;5045656;28;20208;-77
2023/12/04 03:45:48;;;;;;;17.20;12.48;;;;;;;-1.76;69.15;97924.16;5046076;28;20195;-77
2023/12/04 03:48:14;;;;;;;17.38;13.73;;;;;;;-2.65;71.78;97917.38;5049518;28;20213;-76
2023/12/04 03:50:42;;;;;;;18.08;14.80;;;;;;;-3.09;73.31;97910.28;5046922;28;20204;-77
2023/12/04 03:53:09;;;;;;;18.98;13.73;;;;;;;-3.32;74.58;97898.03;5048384;28;20205;-76
2023/12/04 03:55:35;;;;;;;20.02;14.35;;;;;;;-3.98;76.67;97883.72;5045354;28;20568;-76
2023/12/04 03:58:02;;;;;;;17.80;15.00;;;;;;;-4.04;78.37;97887.69;5048654;28;20210;-76
2023/12/04 04:00:28;;;;;;;19.67;15.57;;;;;;;-4.06;78.15;97890.44;5047363;28;20208;-77
2023/12/04 04:02:55;;;;;;;18.02;14.43;;;;;;;-4.09;78.64;97890.66;5046422;28;20213;-77
2023/12/04 04:05:21;;;;;;;20.08;15.77;;;;;;;-3.90;77.96;97891.94;5047719;28;20206;-76
2023/12/04 04:07:49;;;;;;;21.92;15.75;;;;;;;-3.86;77.69;97894.19;5046858;28;20218;-76
2023/12/04 04:10:15;;;;;;;19.75;14.20;;;;;;;-3.28;75.91;97891.53;5046638;28;20199;-77
2023/12/04 04:12:42;;;;;;;19.67;15.15;;;;;;;-3.40;76.14;97894.16;5045340;28;20213;-77
2023/12/04 04:15:09;;;;;;;21.08;15.55;;;;;;;-3.71;76.41;97905.44;5046051;28;20226;-78
2023/12/04 04:17:35;;;;;;;19.38;15.00;;;;;;;-3.74;76.99;97893.28;5040143;28;20225;-76
2023/12/04 04:20:02;;;;;;;17.75;14.60;;;;;;;-3.98;78.09;97889.03;5047239;28;20208;-77
2023/12/04 04:22:29;;;;;;;18.50;14.93;;;;;;;-3.91;78.07;97890.25;5043832;28;20217;-77
2023/12/04 04:24:57;;;;;;;19.95;14.75;;;;;;;-3.71;77.32;97884.28;5040973;28;20541;-76
2023/12/04 04:27:23;;;;;;;20.55;14.75;;;;;;;-3.54;76.54;97881.16;5046004;28;20218;-76
2023/12/04 04:29:49;;;;;;;18.75;15.50;;;;;;;-3.88;77.68;97887.34;5046969;28;20197;-77
2023/12/04 04:32:16;;;;;;;19.00;15.02;;;;;;;-3.90;77.78;97890.13;5048808;28;20197;-77
2023/12/04 04:34:42;;;;;;;18.75;14.20;;;;;;;-4.16;78.79;97893.88;5044984;28;20245;-76
2023/12/04 04:37:09;;;;;;;17.35;13.80;;;;;;;-4.20;78.98;97890.59;5046729;28;20882;-77
2023/12/04 04:39:35;;;;;;;19.25;16.13;;;;;;;-4.36;79.54;97908.56;5044121;28;20720;-78
2023/12/04 04:42:03;;;;;;;20.83;15.57;;;;;;;-4.41;80.38;97900.97;5042727;28;20205;-76
2023/12/04 04:44:30;;;;;;;20.95;15.85;;;;;;;-4.47;80.49;97890.84;5045137;28;20558;-75
2023/12/04 04:46:56;;;;;;;21.20;15.55;;;;;;;-4.34;80.26;97892.59;5047822;28;20218;-77
2023/12/04 04:49:23;;;;;;;19.92;15.70;;;;;;;-4.46;80.73;97886.41;5051386;28;20190;-76
2023/12/04 04:51:49;;;;;;;20.90;16.40;;;;;;;-4.62;81.27;97891.16;5051945;28;20213;-76
2023/12/04 04:54:16;;;;;;;19.58;16.13;;;;;;;-4.58;81.55;97882.06;5049526;28;20308;-75
2023/12/04 04:56:42;;;;;;;20.13;16.15;;;;;;;-4.51;81.62;97885.91;5049667;28;20306;-75
2023/12/04 04:59:10;;;;;;;19.33;15.07;;;;;;;-4.54;81.48;97878.22;5050665;28;20213;-75
2023/12/04 05:01:37;;;;;;;20.65;15.30;;;;;;;-4.43;81.14;97881.75;5048178;28;20208;-76
2023/12/04 05:04:04;;;;;;;19.33;15.60;;;;;;;-4.37;81.02;97877.81;5049787;28;20526;-76
2023/12/04 05:06:30;;;;;;;20.55;14.60;;;;;;;-4.63;81.69;97879.75;5050610;28;20211;-75
2023/12/04 05:08:57;;;;;;;20.45;16.38;;;;;;;-4.80;82.66;97882.75;5050707;28;20234;-76
2023/12/04 05:11:24;;;;;;;20.75;16.38;;;;;;;-4.74;82.47;97869.97;5050212;28;20223;-75
2023/12/04 05:13:50;;;;;;;20.83;16.50;;;;;;;-4.63;82.62;97874.47;5050635;28;20222;-77
2023/12/04 05:16:18;;;;;;;21.02;15.88;;;;;;;-4.61;82.23;97854.09;5049977;28;20225;-78
2023/12/04 05:18:44;;;;;;;19.95;16.50;;;;;;;-4.60;82.25;97853.13;5048962;28;20205;-75
2023/12/04 05:21:11;;;;;;;26.10;17.30;;;;;;;-4.70;82.45;97856.53;5051598;28;20193;-76
2023/12/04 05:23:38;;;;;;;18.40;14.55;;;;;;;-4.75;82.68;97859.50;5048823;28;20263;-76
2023/12/04 05:26:05;;;;;;;23.83;17.83;;;;;;;-4.71;82.86;97849.56;5047533;28;20221;-76
2023/12/04 05:28:32;;;;;;;22.00;16.90;;;;;;;-4.82;83.17;97842.44;5049168;28;20202;-75
2023/12/04 05:30:59;;;;;;;19.15;15.60;;;;;;;-4.90;83.07;97843.03;5048258;28;20209;-75
2023/12/04 05:33:27;;;;;;;20.58;15.55;;;;;;;-4.97;83.09;97839.13;5046663;28;21140;-76
2023/12/04 05:35:53;;;;;;;19.25;16.50;;;;;;;-5.09;83.44;97838.22;5080395;28;20228;-74
2023/12/04 05:38:20;;;;;;;19.33;15.85;;;;;;;-5.00;83.09;97828.78;5049853;28;20662;-76
2023/12/04 05:40:46;;;;;;;20.63;16.45;;;;;;;-5.00;82.81;97828.78;5047561;28;20209;-77
2023/12/04 05:43:13;;;;;;;20.50;16.02;;;;;;;-4.91;82.43;97820.22;5046436;28;20527;-76
2023/12/04 05:45:40;;;;;;;15.90;13.45;;;;;;;-5.03;82.42;97825.53;5050070;28;20222;-75
2023/12/04 05:48:06;;;;;;;16.42;13.75;;;;;;;-4.93;82.20;97819.50;5047433;28;20267;-77
2023/12/04 05:50:34;;;;;;;17.15;13.50;;;;;;;-4.79;81.42;97816.66;5048948;28;20235;-76
2023/12/04 05:53:01;;;;;;;15.10;12.45;;;;;;;-4.77;81.60;97825.31;5048549;28;20669;-75
2023/12/04 05:55:27;;;;;;;14.40;11.77;;;;;;;-4.69;80.98;97824.75;5048077;28;20324;-76
2023/12/04 05:57:53;;;;;;;13.32;11.70;;;;;;;-4.69;80.58;97822.13;5048370;28;20205;-75
2023/12/04 06:00:21;;;;;;;15.95;12.35;;;;;;;-4.58;80.39;97823.97;5048105;28;20230;-71
2023/12/04 06:02:48;;;;;;;15.48;13.00;;;;;;;-4.46;80.00;97825.69;5044316;28;20194;-78
2023/12/04 06:05:14;;;;;;;12.70;10.90;;;;;;;-4.42;80.09;97819.22;5046699;28;20202;-75
2023/12/04 06:07:42;;;;;;;15.35;11.52;;;;;;;-4.40;79.89;97810.22;5048065;28;20304;-76
2023/12/04 06:10:09;;;;;;;13.50;11.40;;;;;;;-4.41;80.07;97815.63;5052760;28;20290;-75
2023/12/04 06:12:36;;;;;;;13.50;11.15;;;;;;;-4.34;80.42;97816.84;5044016;28;20210;-77
2023/12/04 06:15:03;;;;;;;13.70;11.05;;;;;;;-4.38;80.60;97823.31;5044929;28;20234;-77
2023/12/04 06:17:29;;;;;;;13.30;11.10;;;;;;;-3.96;79.37;97819.25;5048313;28;20243;-76
2023/12/04 06:19:56;;;;;;;13.13;11.38;;;;;;;-4.02;79.21;97826.78;5049647;28;20214;-77
2023/12/04 06:22:22;;;;;;;15.65;12.10;;;;;;;-4.00;79.39;97819.59;5045066;28;20203;-71
2023/12/04 06:24:51;;;;;;;13.70;11.57;;;;;;;-4.01;79.12;97829.31;5081751;28;20622;-72
2023/12/04 06:27:20;;;;;;;13.18;11.60;;;;;;;-4.13;79.54;97824.94;5029872;28;20233;-72
2023/12/04 06:29:47;;;;;;;14.20;11.25;;;;;;;-4.01;79.22;97825.81;5046783;28;20241;-72
2023/12/04 06:32:14;;;;;;;13.35;11.77;;;;;;;-3.81;78.63;97827.78;5048378;28;20722;-72
2023/12/04 06:34:41;;;;;;;12.88;11.00;;;;;;;-4.06;79.10;97834.09;5043206;28;20574;-71
2023/12/04 06:37:10;;;;;;;13.15;11.85;;;;;;;-3.81;78.75;97825.13;5044187;28;20237;-71
2023/12/04 06:39:38;;;;;;;13.73;11.65;;;;;;;-3.62;77.85;97819.28;5037340;28;20693;-71
2023/12/04 06:42:07;;;;;;;13.98;11.60;;;;;;;-3.88;77.98;97813.34;5045949;28;20205;-71
2023/12/04 06:44:34;;;;;;;13.65;10.85;;;;;;;-3.75;77.61;97816.72;5046639;28;20203;-71
2023/12/04 06:47:01;;;;;;;13.30;11.82;;;;;;;-3.74;77.53;97815.78;5047114;28;20225;-71
2023/12/04 06:49:31;;;;;;;12.18;10.88;;;;;;;-3.89;77.67;97806.38;5047628;28;20293;-71
2023/12/04 06:51:57;;;;;;;13.32;11.40;;;;;;;-3.74;77.28;97810.47;5048123;28;20298;-71
2023/12/04 06:54:24;;;;;;;14.05;11.38;;;;;;;-3.82;77.34;97802.31;5045952;28;20223;-71
2023/12/04 06:56:51;;;;;;;13.85;11.48;;;;;;;-3.88;77.35;97797.47;5047844;28;20223;-72
2023/12/04 06:59:19;;;;;;;13.90;11.32;;;;;;;-4.06;77.96;97794.47;5045457;28;20195;-72
2023/12/04 07:01:46;;;;;;;13.55;11.23;;;;;;;-4.15;78.31;97803.94;5032434;28;20721;-72
2023/12/04 07:04:12;;;;;;;14.73;12.05;;;;;;;-4.36;78.83;97796.81;5046318;28;20199;-72
2023/12/04 07:06:40;;;;;;;15.32;12.20;;;;;;;-4.19;79.06;97799.84;5045773;28;20304;-71
2023/12/04 07:09:08;;;;;;;16.17;12.48;;;;;;;-4.27;78.86;97798.75;5030642;28;20736;-72
2023/12/04 07:11:34;;;;;;;15.55;12.43;;;;;;;-4.37;78.79;97795.97;5044381;28;20272;-72
2023/12/04 07:14:01;;;;;;;13.60;12.20;;;;;;;-4.36;79.33;97797.66;5038422;28;20681;-72
2023/12/04 07:16:29;;;;;;;13.90;12.40;;;;;;;-4.52;79.58;97789.16;5041814;28;20232;-74
2023/12/04 07:18:55;;;;;;;15.55;12.07;;;;;;;-4.61;80.17;97777.53;5045195;28;20420;-72
2023/12/04 07:21:22;;;;;;;16.08;13.10;;;;;;;-4.52;80.13;97771.53;5035297;28;20195;-71
2023/12/04 07:23:48;;;;;;;14.25;11.73;;;;;;;-4.48;79.85;97772.16;5041324;28;20203;-72
2023/12/04 07:26:15;;;;;;;14.52;13.02;;;;;;;-4.54;80.07;97772.59;5040162;28;20217;-72
2023/12/04 07:28:41;;;;;;;13.40;11.65;;;;;;;-4.48;80.52;97782.72;5042086;28;20198;-72
2023/12/04 07:31:08;;;;;;;14.70;12.45;;;;;;;-4.27;79.82;97770.53;5047523;28;20210;-71
2023/12/04 07:33:35;;;;;;;13.52;12.13;;;;;;;-4.29;80.63;97772.47;5046217;28;20854;-71
2023/12/04 07:36:02;;;;;;;14.32;11.85;;;;;;;-4.39;80.94;97760.91;5044087;28;20235;-72
2023/12/04 07:38:28;;;;;;;14.13;12.45;;;;;;;-4.36;81.81;97752.75;5048714;28;20209;-72
2023/12/04 07:40:55;;;;;;;15.68;12.45;;;;;;;-4.22;80.91;97755.16;5047131;28;20202;-72
2023/12/04 07:43:21;;;;;;;14.38;12.25;;;;;;;-4.14;80.43;97758.06;5047657;28;20289;-72
2023/12/04 07:45:48;;;;;;;14.25;12.18;;;;;;;-4.08;80.17;97769.97;5045992;28;20212;-72
2023/12/04 07:48:14;;;;;;;13.32;10.95;;;;;;;-3.97;80.34;97758.56;5043017;28;20199;-72
2023/12/04 07:50:42;;;;;;;13.50;11.77;;;;;;;-3.91;80.23;97745.72;5042784;28;20194;-73
2023/12/04 07:53:11;;;;;;;15.57;10.25;;;;;;;-3.72;79.63;97751.25;5042750;28;20211;-72
2023/12/04 07:55:38;;;;;;;13.13;9.68;;;;;;;-3.90;80.04;97746.56;5042259;28;20233;-72
2023/12/04 07:58:04;;;;;;;11.85;9.98;;;;;;;-4.26;81.11;97737.06;5045106;28;20203;-79
2023/12/04 08:00:31;;;;;;;12.88;11.13;;;;;;;-4.17;81.22;97741.59;5046860;28;20209;-72
2023/12/04 08:02:57;;;;;;;13.55;10.40;;;;;;;-4.03;81.10;97751.97;5034999;28;20208;-72
2023/12/04 08:05:24;;;;;;;11.27;9.43;;;;;;;-3.97;80.82;97746.19;5045993;28;20214;-72
2023/12/04 08:07:52;;;;;;;11.40;9.82;;;;;;;-3.85;80.38;97739.09;5040190;28;20989;-72
2023/12/04 08:10:18;;;;;;;10.98;9.50;;;;;;;-4.04;80.52;97745.00;5044247;28;20198;-72
2023/12/04 08:12:45;;;;;;;12.88;11.18;;;;;;;-3.80;80.62;97747.50;5045162;28;20209;-72
2023/12/04 08:15:12;;;;;;;13.77;10.32;;;;;;;-3.84;80.28;97740.78;5044142;28;20234;-72
2023/12/04 08:17:38;;;;;;;14.18;11.02;;;;;;;-3.90;81.02;97734.19;5033648;28;20209;-72
2023/12/04 08:20:06;;;;;;;10.57;9.15;;;;;;;-3.86;80.93;97737.41;5044614;28;20217;-71
2023/12/04 08:22:33;;;;;;;11.45;9.57;;;;;;;-3.64;81.00;97736.59;5050730;28;20282;-71
2023/12/04 08:25:01;;;;;;;12.23;10.07;;;;;;;-3.68;81.09;97724.56;5043609;28;20739;-71
2023/12/04 08:27:27;;;;;;;11.65;10.45;;;;;;;-3.66;80.76;97715.56;5045665;28;20201;-70
2023/12/04 08:29:54;;;;;;;12.32;10.60;;;;;;;-3.75;81.30;97718.91;5045050;28;20297;-71
2023/12/04 08:32:22;;;;;;;13.10;11.30;;;;;;;-3.81;81.15;97709.66;5049998;28;20205;-71
2023/12/04 08:34:48;;;;;;;15.15;11.25;;;;;;;-3.82;81.22;97712.44;5050322;28;20207;-71
2023/12/04 08:37:15;;;;;;;15.52;12.80;;;;;;;-3.70;81.00;97706.19;5047355;28;20213;-71
2023/12/04 08:39:41;;;;;;;15.55;11.15;;;;;;;-3.68;80.30;97708.72;5046092;28;20203;-71
2023/12/04 08:42:09;;;;;;;14.32;12.30;;;;;;;-3.75;80.70;97700.41;5042329;28;20209;-71
2023/12/04 08:44:36;;;;;;;16.65;13.57;;;;;;;-3.68;80.34;97700.78;5042911;28;21138;-69
2023/12/04 08:47:02;;;;;;;16.17;13.23;;;;;;;-3.62;80.03;97701.13;5051577;28;20605;-71
2023/12/04 08:49:28;;;;;;;18.10;12.30;;;;;;;-3.59;80.71;97708.81;5055836;28;20201;-72
2023/12/04 08:51:55;;;;;;;15.32;13.43;;;;;;;-3.34;80.01;97712.13;5049534;28;20211;-71
2023/12/04 08:54:21;;;;;;;17.90;13.48;;;;;;;-3.13;79.39;97710.38;5048396;28;20221;-73
2023/12/04 08:56:48;;;;;;;15.55;13.30;;;;;;;-3.06;78.55;97714.22;5051153;28;20231;-71
2023/12/04 08:59:16;;;;;;;15.10;12.50;;;;;;;-2.91;78.04;97690.91;5045310;28;20203;-72
2023/12/04 09:01:43;;;;;;;16.15;13.50;;;;;;;-3.08;77.81;97693.16;5039223;28;20293;-72
2023/12/04 09:04:09;;;;;;;14.90;12.98;;;;;;;-3.22;77.02;97696.09;5045587;28;20198;-72
2023/12/04 09:06:36;;;;;;;16.42;12.80;;;;;;;-3.20;77.08;97690.66;5051113;28;20232;-72
2023/12/04 09:09:02;;;;;;;15.45;12.93;;;;;;;-3.19;77.48;97689.72;5050863;28;20200;-72
2023/12/04 09:11:29;;;;;;;15.80;12.75;;;;;;;-3.23;76.55;97696.22;5049705;28;20232;-72
2023/12/04 09:13:55;;;;;;;16.02;12.18;;;;;;;-3.19;76.72;97708.22;5041074;28;20210;-72
2023/12/04 09:16:24;;;;;;;14.60;11.57;;;;;;;-3.23;76.61;97726.16;5030517;28;20233;-71
2023/12/04 09:18:50;;;;;;;13.05;11.15;;;;;;;-3.18;76.42;97701.97;5043717;28;20206;-71
2023/12/04 09:21:17;;;;;;;13.82;11.68;;;;;;;-3.05;76.36;97707.97;5040963;28;20197;-71
2023/12/04 09:23:49;;;;;;;15.43;12.40;;;;;;;-2.99;75.81;97701.31;5045616;28;20256;-71
2023/12/04 09:26:16;;;;;;;14.05;11.63;;;;;;;-3.29;76.65;97691.44;5045513;28;20220;-71
2023/12/04 09:28:42;;;;;;;15.40;12.07;;;;;;;-3.42;77.41;97683.66;5049238;28;20686;-71
2023/12/04 09:31:09;;;;;;;13.40;11.70;;;;;;;-3.23;77.45;97701.50;5048107;28;20211;-71
2023/12/04 09:33:37;;;;;;;15.98;12.82;;;;;;;-3.03;76.95;97686.66;5040654;28;20217;-71
2023/12/04 09:36:04;;;;;;;15.40;13.45;;;;;;;-2.96;76.38;97695.78;5032865;28;20313;-71
2023/12/04 09:38:31;;;;;;;17.48;12.63;;;;;;;-2.90;76.35;97701.38;5046450;28;20210;-71
2023/12/04 09:41:01;;;;;;;14.25;11.40;;;;;;;-3.10;76.37;97695.09;5049894;28;20214;-71
2023/12/04 09:43:28;;;;;;;15.20;11.20;;;;;;;-3.20;76.40;97693.31;5047964;28;20197;-71
2023/12/04 09:45:54;;;;;;;14.60;12.02;;;;;;;-3.13;76.48;97694.50;5048979;28;20217;-71
2023/12/04 09:48:21;;;;;;;15.18;12.27;;;;;;;-3.12;77.04;97696.19;5045775;28;20664;-71
2023/12/04 09:50:49;;;;;;;14.48;11.35;;;;;;;-2.95;77.11;97687.72;5046914;28;20205;-71
2023/12/04 09:53:16;;;;;;;14.93;12.48;;;;;;;-3.08;76.78;97692.31;5043638;28;20526;-70
2023/12/04 09:55:42;;;;;;;16.27;11.70;;;;;;;-3.15;76.89;97691.97;5048782;28;20289;-71
2023/12/04 09:58:10;;;;;;;14.65;11.07;;;;;;;-3.26;76.71;97699.97;5048798;28;20208;-71
2023/12/04 10:00:37;;;;;;;17.38;13.40;;;;;;;-3.02;76.89;97710.34;5041303;28;20200;-71
2023/12/04 10:03:04;;;;;;;16.75;12.25;;;;;;;-2.74;76.67;97691.22;5046393;28;20203;-75
2023/12/04 10:05:30;;;;;;;16.65;13.00;;;;;;;-3.12;76.53;97681.16;5046055;28;20213;-71
2023/12/04 10:07:58;;;;;;;14.63;12.20;;;;;;;-3.10;76.71;97681.03;5045131;28;20211;-71
2023/12/04 10:10:25;;;;;;;14.57;12.75;;;;;;;-2.93;76.70;97675.19;5046798;28;20248;-72
2023/12/04 10:12:52;;;;;;;12.75;11.23;;;;;;;-2.95;76.31;97674.47;5042118;28;20202;-71
2023/12/04 10:15:18;;;;;;;15.18;13.43;;;;;;;-2.97;76.91;97662.34;5046501;28;20236;-72
2023/12/04 10:17:45;;;;;;;15.60;12.15;;;;;;;-2.96;76.32;97650.78;5043745;28;20204;-71
2023/12/04 10:20:17;;;;;;;14.45;12.10;;;;;;;-2.97;76.06;97652.59;5042635;28;20205;-71
2023/12/04 10:22:54;;;;;;;12.82;11.20;;;;;;;-2.87;76.72;97645.53;5042986;28;20192;-71
2023/12/04 10:25:22;;;;;;;13.43;11.45;;;;;;;-2.68;76.12;97649.31;5047342;28;20840;-71
2023/12/04 10:27:49;;;;;;;11.55;10.35;;;;;;;-2.60;75.43;97650.34;5042928;28;20204;-71
2023/12/04 10:30:27;;;;;;;13.07;10.35;;;;;;;-2.35;75.00;97645.59;5046984;28;20561;-71
2023/12/04 10:33:00;;;;;;;13.20;10.70;;;;;;;-2.41;74.38;97652.25;5045017;28;20197;-71
2023/12/04 10:35:26;;;;;;;13.18;11.00;;;;;;;-2.57;74.60;97639.47;5077514;28;20224;-71
2023/12/04 10:37:55;;;;;;;13.57;10.48;;;;;;;-2.61;75.01;97637.22;5046011;28;20204;-71
2023/12/04 10:40:26;;;;;;;13.80;10.90;;;;;;;-2.51;74.95;97648.69;5043612;28;20259;-71
2023/12/04 10:43:11;;;;;;;12.75;10.55;;;;;;;-2.43;75.12;97635.66;5078796;28;20224;-71
2023/12/04 10:45:38;;;;;;;14.45;10.75;;;;;;;-2.46;75.45;97641.19;5045185;28;20964;-72
2023/12/04 10:48:05;;;;;;;12.18;10.05;;;;;;;-2.34;75.54;97634.03;5044792;28;20224;-74
2023/12/04 10:50:32;;;;;;;14.90;11.30;;;;;;;-2.16;74.92;97627.97;5046214;28;20205;-74
2023/12/04 10:52:58;;;;;;;14.38;11.40;;;;;;;-2.26;75.00;97631.53;5043204;28;20201;-72
2023/12/04 10:55:26;;;;;;;13.00;10.80;;;;;;;-2.29;75.69;97598.22;5046948;28;20619;-73
2023/12/04 10:57:54;;;;;;;13.70;11.60;;;;;;;-2.25;75.48;97607.53;5045906;28;20197;-73
2023/12/04 11:00:21;;;;;;;13.25;11.38;;;;;;;-2.20;75.87;97610.66;5048852;28;20200;-73
2023/12/04 11:02:49;;;;;;;12.48;10.30;;;;;;;-2.13;76.12;97603.84;5040277;28;20406;-72
2023/12/04 11:05:19;;;;;;;13.43;11.20;;;;;;;-1.92;75.70;97600.25;5047604;28;20292;-72
2023/12/04 11:07:49;;;;;;;12.68;10.30;;;;;;;-1.96;75.42;97604.19;5047140;28;20259;-72
2023/12/04 11:10:16;;;;;;;12.73;11.23;;;;;;;-1.72;75.45;97578.13;5047584;28;20208;-73
2023/12/04 11:12:46;;;;;;;13.55;10.93;;;;;;;-1.50;74.83;97563.78;5044163;28;20205;-74
2023/12/04 11:15:15;;;;;;;12.35;11.05;;;;;;;-1.61;75.02;97554.13;5046780;28;20243;-72